NCAR-RAP Real-Time Weather Data

Output produced by METARs form (26 May 2022  09:01 UTC)
found at http://weather.rap.ucar.edu/surface/
 
KSLC 260754Z 17006KT 10SM FEW150 17/01 A3001 RMK AO2 SLP117 T01670006
KSLC 260654Z 14007KT 10SM FEW150 18/M02 A3002 RMK AO2 SLP119 T01781022 402720100
KSLC 260554Z 11006KT 10SM FEW150 19/M01 A3002 RMK AO2 SLP118 T01891011 10267 20183 53005
KSLC 260454Z 17006KT 10SM FEW150 19/M03 A3001 RMK AO2 SLP118 T01891028
KSLC 260354Z 14005KT 10SM FEW150 21/M03 A3001 RMK AO2 SLP116 T02111028
KSLC 260254Z 00000KT 10SM FEW150 24/M03 A3000 RMK AO2 SLP114 T02441028 56008
KSLC 260154Z 36004KT 10SM FEW150 26/M03 A3001 RMK AO2 SLP117 T02611028
KSLC 260054Z 01007KT 10SM FEW150 26/M02 A3001 RMK AO2 SLP122 T02611022
KSLC 252354Z 01009KT 10SM FEW150 27/M02 A3003 RMK AO2 SLP128 T02671017 10272 20217 58013
KSLC 252254Z 33009KT 10SM CLR 27/01 A3005 RMK AO2 SLP131 T02720006
KSLC 252154Z COR 01010G14 10SM CLR 26/M01 A3006 RMK AO2 SLP138 T02611006
KSLC 252054Z 35005KT 10SM FEW110 26/M02 A3007 RMK AO2 SLP143 T02561017 58016
KSLC 251954Z VRB03KT 10SM FEW110 24/M02 A3009 RMK AO2 SLP150 T02441017
KSLC 251854Z 30007KT 10SM FEW110 FEW230 24/M03 A3011 RMK AO2 SLP156 ACSL DSNT SE T02391033
KSLC 251754Z 27006KT 10SM FEW120 FEW230 23/M06 A3013 RMK AO2 SLP161 T02281056 10228 20106 50001
KSLC 251654Z 27005KT 10SM FEW120 FEW230 21/M07 A3013 RMK AO2 SLP160 ACSL DSNT NE AND SE T02111072
KSLC 251554Z VRB04KT 10SM FEW140 FEW230 19/M04 A3013 RMK AO2 SLP161 ACSL DSNT NE T01891039
KSLC 251454Z 15007KT 10SM FEW150 SCT220 16/M01 A3012 RMK AO2 SLP163 T01611011 51008
KSLC 251354Z 14008KT 10SM FEW220 14/M04 A3012 RMK AO2 SLP161 T01391044
KSLC 251254Z 14007KT 10SM BKN180 12/M04 A3011 RMK AO2 SLP161 T01171039
KSLC 251154Z COR 15006KT 10SM BKN180 11/M03 A3009 RMK AO2 SLP157 T01061028 10150 20100 53010
KSLC 251054Z 15006KT 10SM FEW100 FEW200 11/M02 A3008 RMK AO2 SLP150 T01111022
KSLC 250954Z 14005KT 10SM FEW100 FEW200 11/M03 A3007 RMK AO2 SLP146 T01111028
KSLC 250854Z 16005KT 10SM SCT200 12/M01 A3006 RMK AO2 SLP144 T01221011 51003
KSLC 250754Z 13004KT 10SM SCT200 13/M01 A3006 RMK AO2 SLP143 T01281006
KSLC 250654Z 16004KT 10SM FEW200 14/M01 A3005 RMK AO2 SLP140 T01391006 402280089
KSLC 250554Z 15005KT 10SM FEW200 15/00 A3005 RMK AO2 SLP140 T01500000 10222 20144 51016
KSLC 250454Z 31005KT 10SM FEW200 17/M02 A3004 RMK AO2 SLP135 T01721017
KSLC 250354Z 30006KT 10SM FEW095 FEW200 18/M03 A3001 RMK AO2 SLP125 T01831028
KSLC 250254Z 27005KT 10SM FEW095 FEW200 19/M03 A3000 RMK AO2 SLP121 T01941033 53001
KSLC 250154Z VRB04KT 10SM FEW095 FEW200 21/M04 A2999 RMK AO2 SLP118 T02111039
KSLC 250054Z 36007KT 10SM FEW095 FEW200 22/M04 A2998 RMK AO2 SLP118 T02171039
KSLC 242354Z 32007G15KT 10SM FEW095 FEW200 22/M04 A2999 RMK AO2 SLP123 T02171044 10228 20183 58004
KSLC 242254Z 29008G22KT 10SM FEW095 SCT200 22/M04 A3000 RMK AO2 PK WND 34027/2200 SLP125 ACSL DSNT SW T02171044
KSLC 242154Z 34019G26KT 10SM SCT090 SCT140 SCT200 22/M04 A3001 RMK AO2 PK WND 35026/2154 SLP127 T02171044
KSLC 242054Z 30010G20KT 10SM SCT090 SCT140 SCT200 21/M04 A3001 RMK AO2 SLP128 T02111039 56010
KSLC 241954Z 34010G17KT 10SM SCT085 20/M03 A3001 RMK AO2 SLP129 T02001028
KSLC 241854Z 29013G18KT 10SM SCT085 BKN130 20/M03 A3002 RMK AO2 SLP132 T02001028
KSLC 241754Z 00000KT 10SM SCT085 BKN100 BKN130 18/M04 A3004 RMK AO2 SLP140 ACSL DSNT SE T01831039 10194 20094 51001
KSLC 241654Z COR 19004KT 10SM SCT100 SCT150 18/M03 A3004 RMK AO2 SLP136 T01831033
KSLC 241554Z 17005KT 10SM SCT100 SCT150 17/M04 A3004 RMK AO2 SLP139 T01671039
KSLC 241454Z 15006KT 10SM FEW090 SCT160 SCT220 13/M04 A3004 RMK AO2 SLP142 T01331039 53002
KSLC 241354Z 15007KT 10SM FEW160 SCT220 12/M04 A3003 RMK AO2 SLP139 T01171044
KSLC 241254Z 14008KT 10SM FEW120 FEW150 SCT200 10/M04 A3003 RMK AO2 SLP141 T01001044
KSLC 241154Z 12009KT 10SM BKN150 09/M03 A3003 RMK AO2 SLP140 T00941033 10122 20089 53000
KSLC 241054Z 14007KT 10SM SCT250 09/M04 A3003 RMK AO2 SLP140 T00941044
KSLC 240954Z 14006KT 10SM FEW180 10/M05 A3003 RMK AO2 SLP139 T01001050